Time;durP1;ratioP1;P1;durP2;ratioP2;P2;SDS_P1;SDS_P2;PMS_P1;PMS_P2;Temp;Humidity;BMP_temperature;BMP_pressure;BME280_temperature;BME280_humidity;BME280_pressure;Samples;Min_cycle;Max_cycle;Signal;HPM_P1;HPM_P2
2022/01/27 00:05:09;;;;;;;30.42;4.47;;;;;;;5.74;100.00;100432.50;4898013;29;20048;-78
2022/01/27 00:07:35;;;;;;;28.58;4.22;;;;;;;5.74;100.00;100419.97;4897594;29;20438;-78
2022/01/27 00:12:29;;;;;;;30.67;4.43;;;;;;;5.74;100.00;100419.16;4900084;29;20041;-77
2022/01/27 00:15:07;;;;;;;34.15;4.30;;;;;;;5.65;100.00;100405.84;4902455;29;20115;-78
2022/01/27 00:17:38;;;;;;;25.38;3.67;;;;;;;5.68;100.00;100414.50;4899852;29;20358;-77
2022/01/27 00:20:04;;;;;;;25.55;3.70;;;;;;;5.62;100.00;100386.66;4885428;29;20510;-78
2022/01/27 00:22:29;;;;;;;19.10;3.60;;;;;;;5.63;100.00;100388.34;4900711;29;20029;-78
2022/01/27 00:24:55;;;;;;;23.20;4.05;;;;;;;5.66;100.00;100374.63;4901650;29;20378;-78
2022/01/27 00:27:20;;;;;;;17.42;3.97;;;;;;;5.57;100.00;100343.69;4900757;29;20459;-78
2022/01/27 00:29:45;;;;;;;23.08;4.07;;;;;;;5.71;100.00;100358.09;4901693;29;20035;-78
2022/01/27 00:32:11;;;;;;;18.55;3.38;;;;;;;5.70;100.00;100356.44;4868423;29;20374;-77
2022/01/27 00:34:36;;;;;;;13.88;2.80;;;;;;;5.63;100.00;100340.31;4884931;29;20064;-78
2022/01/27 00:37:02;;;;;;;15.93;3.10;;;;;;;5.38;100.00;100288.94;4900847;29;20047;-78
2022/01/27 00:39:27;;;;;;;15.35;3.40;;;;;;;5.66;100.00;100323.91;4900522;29;20435;-77
2022/01/27 00:41:52;;;;;;;13.68;2.92;;;;;;;5.56;100.00;100297.50;4900982;29;20032;-78
2022/01/27 00:44:18;;;;;;;17.10;3.50;;;;;;;5.61;100.00;100303.09;4884704;29;20503;-78
2022/01/27 00:46:43;;;;;;;14.25;3.35;;;;;;;5.52;100.00;100282.81;4901372;29;20032;-77
2022/01/27 00:49:08;;;;;;;17.13;3.75;;;;;;;5.63;100.00;100303.78;4900564;29;20041;-78
2022/01/27 00:51:37;;;;;;;18.75;3.63;;;;;;;5.51;100.00;100270.50;4899029;29;20363;-78
2022/01/27 00:56:42;;;;;;;21.63;4.28;;;;;;;5.55;100.00;100255.78;4901081;29;20041;-78
2022/01/27 01:01:43;;;;;;;18.10;3.85;;;;;;;5.49;100.00;100240.47;4900884;29;20172;-78
2022/01/27 01:04:10;;;;;;;17.65;4.03;;;;;;;5.69;100.00;100261.34;4900223;29;20036;-77
2022/01/27 01:06:41;;;;;;;17.02;3.63;;;;;;;5.68;100.00;100254.34;4899111;29;20036;-78
2022/01/27 01:14:47;;;;;;;15.57;3.33;;;;;;;5.55;100.00;100217.59;4901287;29;20522;-77
2022/01/27 01:17:30;;;;;;;16.42;3.13;;;;;;;5.64;100.00;100209.34;4899777;29;20037;-77
2022/01/27 01:20:24;;;;;;;14.02;3.20;;;;;;;5.58;100.00;100196.72;4898637;29;20048;-77
2022/01/27 01:31:17;;;;;;;9.50;2.22;;;;;;;5.62;100.00;100157.97;4900920;29;20103;-78
2022/01/27 01:33:44;;;;;;;8.48;2.33;;;;;;;5.69;100.00;100165.25;4902143;29;20099;-78
2022/01/27 01:36:26;;;;;;;8.70;3.03;;;;;;;5.69;100.00;100154.56;4904714;29;20016;-77
2022/01/27 01:38:52;;;;;;;8.77;2.80;;;;;;;5.76;100.00;100158.16;4900452;29;20069;-77
2022/01/27 01:41:17;;;;;;;9.50;2.75;;;;;;;5.65;100.00;100120.22;4901204;29;20474;-78
2022/01/27 01:43:42;;;;;;;11.60;3.13;;;;;;;5.59;100.00;100104.13;4900545;29;20033;-77
2022/01/27 01:46:08;;;;;;;6.13;2.53;;;;;;;5.67;100.00;100095.22;4899706;29;20044;-78
2022/01/27 01:48:33;;;;;;;8.70;2.53;;;;;;;5.72;100.00;100104.31;4901856;29;20044;-77
2022/01/27 01:51:02;;;;;;;7.55;2.42;;;;;;;5.60;100.00;100066.59;4884177;29;20032;-77
2022/01/27 01:53:28;;;;;;;7.15;2.15;;;;;;;5.61;100.00;100081.59;4899810;29;20028;-77
2022/01/27 01:55:55;;;;;;;9.30;2.42;;;;;;;5.85;100.00;100080.44;4901067;29;20033;-77
2022/01/27 01:58:20;;;;;;;10.18;2.70;;;;;;;5.63;100.00;100041.38;4901488;29;20035;-78
2022/01/27 02:00:46;;;;;;;8.93;2.63;;;;;;;5.75;100.00;100052.41;4900160;29;20107;-77
2022/01/27 02:03:11;;;;;;;9.77;2.83;;;;;;;5.93;100.00;100068.03;4900320;29;20518;-78
2022/01/27 02:05:44;;;;;;;10.48;2.72;;;;;;;5.80;100.00;100034.81;4900310;29;20060;-77
2022/01/27 02:19:14;;;;;;;15.95;3.20;;;;;;;5.93;100.00;100003.97;4911418;29;20112;-78
2022/01/27 02:21:43;;;;;;;10.10;2.90;;;;;;;6.04;100.00;99998.97;4917363;29;20035;-77
2022/01/27 02:24:08;;;;;;;11.52;2.72;;;;;;;6.03;100.00;100007.19;4918315;29;20273;-78
2022/01/27 02:26:34;;;;;;;10.43;2.88;;;;;;;5.99;100.00;99987.19;4917550;29;20491;-77
2022/01/27 02:28:59;;;;;;;12.75;2.88;;;;;;;6.07;100.00;99995.91;4901829;29;20179;-77
2022/01/27 02:31:24;;;;;;;9.52;3.15;;;;;;;5.72;100.00;99925.47;4916920;29;20515;-77
2022/01/27 02:33:57;;;;;;;13.45;3.50;;;;;;;6.09;100.00;99961.84;4901151;29;20032;-78
2022/01/27 02:36:22;;;;;;;11.32;3.00;;;;;;;6.10;100.00;99968.84;4885010;29;20133;-77
2022/01/27 02:38:48;;;;;;;14.88;2.90;;;;;;;6.14;100.00;99971.13;4900296;29;20032;-77
2022/01/27 02:41:16;;;;;;;12.25;3.10;;;;;;;6.07;100.00;99957.69;4903028;29;20024;-78
2022/01/27 02:43:41;;;;;;;13.38;3.45;;;;;;;5.82;100.00;99917.16;4905069;29;20499;-78
2022/01/27 02:46:17;;;;;;;11.93;2.47;;;;;;;6.09;100.00;99945.81;4917802;29;20043;-77
2022/01/27 02:48:42;;;;;;;15.63;2.72;;;;;;;6.01;100.00;99929.91;4917802;29;20099;-77
2022/01/27 02:51:08;;;;;;;12.15;2.65;;;;;;;6.15;100.00;99944.22;4900662;29;20028;-77
2022/01/27 02:53:33;;;;;;;6.82;2.10;;;;;;;6.09;100.00;99918.25;4917710;29;20139;-78
2022/01/27 02:55:59;;;;;;;10.20;2.00;;;;;;;6.04;100.00;99891.31;4917245;29;20039;-78
2022/01/27 02:58:24;;;;;;;12.70;2.10;;;;;;;5.86;100.00;99859.69;4885025;29;20028;-78
2022/01/27 03:00:50;;;;;;;7.97;2.25;;;;;;;6.15;100.00;99904.13;4900816;29;20427;-78
2022/01/27 03:03:15;;;;;;;9.70;2.40;;;;;;;6.24;100.00;99912.84;4899416;29;20046;-78
2022/01/27 03:05:41;;;;;;;8.70;2.47;;;;;;;6.10;100.00;99894.03;4900662;29;20036;-78
2022/01/27 03:08:06;;;;;;;12.73;2.22;;;;;;;6.18;100.00;99895.75;4900423;29;20027;-77
2022/01/27 03:10:38;;;;;;;12.27;2.70;;;;;;;6.01;100.00;99855.13;4900030;29;20024;-77
2022/01/27 03:13:03;;;;;;;12.73;2.75;;;;;;;6.22;100.00;99878.31;4917200;29;20032;-78
2022/01/27 03:15:29;;;;;;;18.40;2.50;;;;;;;6.23;100.00;99874.63;4898785;29;20035;-78
2022/01/27 03:17:54;;;;;;;13.52;2.47;;;;;;;6.15;100.00;99847.22;4917845;29;20043;-78
2022/01/27 03:20:20;;;;;;;14.13;3.08;;;;;;;6.32;100.00;99869.94;4916593;29;20498;-77
2022/01/27 03:22:45;;;;;;;10.75;2.92;;;;;;;6.41;100.00;99867.97;4900262;29;20028;-78
2022/01/27 03:25:11;;;;;;;15.65;2.83;;;;;;;6.27;100.00;99843.84;4900237;29;20028;-77
2022/01/27 03:27:43;;;;;;;14.68;2.58;;;;;;;6.42;100.00;99859.75;4916391;29;20490;-77
2022/01/27 03:30:10;;;;;;;11.85;2.40;;;;;;;6.28;100.00;99823.28;4901608;29;20107;-77
2022/01/27 03:32:35;;;;;;;12.95;2.65;;;;;;;6.42;100.00;99843.72;4883862;29;20056;-78
2022/01/27 03:35:00;;;;;;;11.85;2.90;;;;;;;6.06;100.00;99779.78;4916903;29;20116;-77
2022/01/27 03:37:26;;;;;;;13.02;2.88;;;;;;;6.30;100.00;99791.88;4900397;29;20107;-78
2022/01/27 03:39:51;;;;;;;9.93;3.00;;;;;;;6.52;100.00;99835.34;4900311;29;20514;-78
2022/01/27 03:42:16;;;;;;;15.40;3.30;;;;;;;6.51;100.00;99820.34;4889140;29;20095;-78
2022/01/27 03:44:42;;;;;;;17.35;4.30;;;;;;;6.41;100.00;99788.63;4918486;29;20454;-78
2022/01/27 03:47:07;;;;;;;17.25;4.07;;;;;;;6.62;100.00;99809.09;4920464;29;20024;-77
2022/01/27 03:49:33;;;;;;;22.67;4.53;;;;;;;6.64;100.00;99808.91;4903809;29;20040;-78
2022/01/27 03:52:01;;;;;;;26.15;4.63;;;;;;;6.47;100.00;99771.81;4902839;29;20447;-78
2022/01/27 03:54:27;;;;;;;19.55;4.60;;;;;;;6.64;100.00;99782.19;4903891;29;20067;-78
2022/01/27 03:56:52;;;;;;;28.02;4.57;;;;;;;6.65;100.00;99775.78;4919709;29;20028;-78
2022/01/27 03:59:18;;;;;;;34.33;5.35;;;;;;;6.77;100.00;99783.06;4904116;29;20039;-78
2022/01/27 04:01:44;;;;;;;30.30;6.03;;;;;;;6.74;100.00;99775.44;4904267;29;20028;-77
2022/01/27 04:04:09;;;;;;;40.17;6.28;;;;;;;6.79;100.00;99772.19;4919866;29;20033;-77
2022/01/27 04:06:39;;;;;;;31.50;6.10;;;;;;;6.65;100.00;99730.34;4920855;29;20167;-78
2022/01/27 04:09:07;;;;;;;43.80;6.22;;;;;;;6.74;100.00;99734.50;4888452;29;20122;-78
2022/01/27 04:11:34;;;;;;;35.50;7.10;;;;;;;6.82;100.00;99750.34;4920328;29;20040;-78
2022/01/27 04:14:00;;;;;;;33.72;6.35;;;;;;;6.79;100.00;99735.56;4887869;29;20459;-78
2022/01/27 04:16:25;;;;;;;43.08;6.85;;;;;;;6.77;100.00;99726.91;4919358;29;20020;-77
2022/01/27 04:18:51;;;;;;;50.88;6.80;;;;;;;6.83;100.00;99722.63;4900458;29;20063;-78
2022/01/27 04:21:17;;;;;;;41.13;6.75;;;;;;;6.91;100.00;99722.41;4899742;29;20033;-78
2022/01/27 04:23:43;;;;;;;53.83;7.18;;;;;;;6.81;100.00;99700.59;4884972;29;20059;-78
2022/01/27 04:26:09;;;;;;;44.40;7.53;;;;;;;6.77;100.00;99688.66;4901293;29;20116;-78
2022/01/27 04:28:37;;;;;;;38.50;7.63;;;;;;;6.79;100.00;99689.28;4882948;29;20043;-78
2022/01/27 04:31:06;;;;;;;50.83;7.90;;;;;;;6.95;100.00;99707.59;4901506;29;20033;-78
2022/01/27 04:33:33;;;;;;;49.47;7.72;;;;;;;6.90;100.00;99688.69;4899098;29;20033;-78
2022/01/27 04:36:02;;;;;;;52.22;7.82;;;;;;;6.95;100.00;99688.06;4915110;29;20032;-78
2022/01/27 04:39:16;;;;;;;51.35;7.97;;;;;;;6.88;100.00;99688.06;4915395;29;20033;-77
2022/01/27 04:41:33;;;;;;;62.92;8.73;;;;;;;6.89;100.00;99684.38;4897123;29;20045;-78
2022/01/27 04:44:26;;;;;;;55.85;8.45;;;;;;;6.83;100.00;99661.13;4915420;29;20455;-78
2022/01/27 04:49:11;;;;;;;54.83;8.10;;;;;;;6.85;100.00;99647.53;4899939;29;20367;-78
2022/01/27 04:51:37;;;;;;;50.92;7.38;;;;;;;6.89;100.00;99652.28;4898598;29;20032;-78
2022/01/27 04:54:09;;;;;;;57.28;7.85;;;;;;;7.03;100.00;99658.47;4884829;29;20040;-78
2022/01/27 04:56:37;;;;;;;48.42;7.18;;;;;;;7.00;100.00;99648.19;4900154;29;20335;-78
2022/01/27 04:59:16;;;;;;;69.00;8.30;;;;;;;6.99;100.00;99647.38;4901743;29;20028;-77
2022/01/27 05:01:50;;;;;;;47.78;7.28;;;;;;;6.88;100.00;99610.50;4884411;29;20640;-78
2022/01/27 05:04:18;;;;;;;68.63;9.07;;;;;;;7.06;100.00;99642.03;4899391;29;20059;-77
2022/01/27 05:06:45;;;;;;;45.92;8.00;;;;;;;6.94;100.00;99611.56;4898983;29;20042;-78
2022/01/27 05:09:11;;;;;;;59.08;8.82;;;;;;;7.06;100.00;99637.50;4899739;29;20025;-78
2022/01/27 05:11:44;;;;;;;56.45;8.30;;;;;;;7.11;100.00;99636.03;4898125;29;20115;-78
2022/01/27 05:16:35;;;;;;;54.92;7.70;;;;;;;7.04;100.00;99611.97;4900041;29;20389;-78
2022/01/27 05:19:00;;;;;;;65.35;8.48;;;;;;;7.11;100.00;99623.50;4883497;29;20140;-78
2022/01/27 05:21:26;;;;;;;54.22;8.15;;;;;;;7.10;100.00;99621.84;4913991;29;20489;-77
2022/01/27 05:23:51;;;;;;;63.58;9.25;;;;;;;6.86;100.00;99585.84;4897725;29;20042;-77
2022/01/27 05:26:17;;;;;;;65.88;8.45;;;;;;;6.99;100.00;99595.72;4899699;29;20084;-77
2022/01/27 05:28:42;;;;;;;59.15;7.93;;;;;;;7.06;100.00;99600.03;4899183;29;20043;-78
2022/01/27 05:31:07;;;;;;;70.75;8.63;;;;;;;6.97;100.00;99598.59;4882807;29;20044;-77
2022/01/27 05:33:33;;;;;;;57.35;8.13;;;;;;;6.96;100.00;99596.13;4898709;29;20098;-78
2022/01/27 05:35:59;;;;;;;56.33;8.90;;;;;;;6.92;100.00;99601.06;4914301;29;20671;-78
2022/01/27 05:38:24;;;;;;;66.25;8.90;;;;;;;6.85;100.00;99592.19;4899487;29;20033;-78
2022/01/27 05:40:50;;;;;;;55.65;7.13;;;;;;;6.70;100.00;99562.19;4902581;29;20384;-78
2022/01/27 05:43:15;;;;;;;67.88;9.38;;;;;;;6.57;100.00;99549.63;4898195;29;20032;-77
2022/01/27 05:45:41;;;;;;;65.18;8.88;;;;;;;6.75;100.00;99576.56;4896962;29;20110;-79
2022/01/27 05:48:07;;;;;;;47.80;7.32;;;;;;;6.69;100.00;99563.19;4898413;29;20041;-78
2022/01/27 05:50:33;;;;;;;58.22;8.55;;;;;;;6.71;100.00;99566.50;4894589;29;20044;-78
2022/01/27 05:52:58;;;;;;;62.17;8.68;;;;;;;6.60;100.00;99538.53;4894658;29;20032;-78
2022/01/27 05:55:24;;;;;;;59.20;8.43;;;;;;;6.45;100.00;99527.19;4896582;29;20025;-78
2022/01/27 05:57:50;;;;;;;55.42;8.23;;;;;;;6.55;100.00;99525.75;4893497;29;20032;-79
2022/01/27 06:00:15;;;;;;;67.65;8.30;;;;;;;6.71;100.00;99545.91;4898555;29;20032;-79
2022/01/27 06:02:41;;;;;;;47.17;7.03;;;;;;;6.68;100.00;99526.81;4896323;29;20120;-78
2022/01/27 06:05:07;;;;;;;63.38;9.07;;;;;;;6.82;100.00;99539.13;4897047;29;20033;-79
2022/01/27 06:07:32;;;;;;;59.45;7.93;;;;;;;6.86;100.00;99523.53;4896251;29;20068;-78
2022/01/27 06:09:57;;;;;;;61.80;9.27;;;;;;;7.02;100.00;99550.69;4896861;29;20083;-77
2022/01/27 06:12:23;;;;;;;64.63;9.15;;;;;;;6.99;100.00;99537.72;4897547;29;20046;-77
2022/01/27 06:14:49;;;;;;;60.42;8.15;;;;;;;7.13;100.00;99545.72;4897321;29;20055;-77
2022/01/27 06:17:14;;;;;;;56.83;7.90;;;;;;;7.18;100.00;99537.88;4881567;29;20044;-77
2022/01/27 06:19:44;;;;;;;49.10;7.40;;;;;;;6.90;100.00;99493.47;4910847;29;20056;-78
2022/01/27 06:22:13;;;;;;;56.35;7.40;;;;;;;7.18;100.00;99538.69;4914746;29;20031;-78
2022/01/27 06:24:40;;;;;;;55.70;8.30;;;;;;;7.18;100.00;99527.19;4898923;29;20383;-78
2022/01/27 06:27:05;;;;;;;65.45;8.45;;;;;;;7.14;100.00;99523.28;4925396;29;20103;-78
2022/01/27 06:29:31;;;;;;;55.10;8.57;;;;;;;7.20;100.00;99517.91;4906928;29;20510;-77
2022/01/27 06:31:56;;;;;;;66.50;9.20;;;;;;;7.12;100.00;99501.25;4912564;29;20439;-78
2022/01/27 06:34:22;;;;;;;54.67;8.23;;;;;;;6.77;100.00;99432.00;4915292;29;20028;-78
2022/01/27 06:36:47;;;;;;;70.80;10.23;;;;;;;7.21;100.00;99497.34;4889501;29;20453;-77
2022/01/27 06:39:13;;;;;;;66.18;8.75;;;;;;;7.18;100.00;99500.44;4917683;29;20512;-77
2022/01/27 06:41:38;;;;;;;62.25;8.23;;;;;;;7.16;100.00;99491.81;4885130;29;20048;-77
2022/01/27 06:44:05;;;;;;;62.47;8.75;;;;;;;7.05;100.00;99463.81;4901464;29;20036;-78
2022/01/27 06:46:32;;;;;;;53.47;7.30;;;;;;;6.98;100.00;99447.78;4917321;29;20411;-78
2022/01/27 06:48:57;;;;;;;56.65;8.85;;;;;;;7.10;100.00;99455.19;4918675;29;20486;-77
2022/01/27 06:51:23;;;;;;;58.92;8.23;;;;;;;7.22;100.00;99470.38;4900712;29;20048;-78
2022/01/27 06:53:49;;;;;;;57.85;8.98;;;;;;;7.21;100.00;99455.34;4914109;29;20042;-78
2022/01/27 06:56:14;;;;;;;58.78;9.05;;;;;;;7.23;100.00;99455.16;4914819;29;20032;-78
2022/01/27 06:58:40;;;;;;;58.78;8.15;;;;;;;7.16;100.00;99449.81;4899176;29;20116;-78
2022/01/27 07:01:05;;;;;;;58.33;8.00;;;;;;;7.19;100.00;99428.00;4901209;29;20024;-78
2022/01/27 07:03:30;;;;;;;55.97;8.70;;;;;;;7.15;100.00;99420.59;4885656;29;20078;-78
2022/01/27 07:05:56;;;;;;;59.10;8.00;;;;;;;7.18;100.00;99421.00;4900662;29;20071;-77
2022/01/27 07:08:21;;;;;;;47.90;8.02;;;;;;;7.24;100.00;99419.34;4901449;29;20173;-80
2022/01/27 07:10:47;;;;;;;55.75;7.93;;;;;;;7.26;100.00;99414.59;4898820;29;20040;-77
2022/01/27 07:13:14;;;;;;;49.17;8.85;;;;;;;7.22;100.00;99402.69;4883864;29;20111;-77
2022/01/27 07:15:39;;;;;;;63.40;9.40;;;;;;;7.22;100.00;99394.66;4897238;29;20150;-79
2022/01/27 07:18:04;;;;;;;62.00;8.20;;;;;;;7.26;100.00;99390.53;4899412;29;20393;-78
2022/01/27 07:20:30;;;;;;;61.60;8.63;;;;;;;7.24;100.00;99381.88;4915532;29;20106;-78
2022/01/27 07:22:55;;;;;;;54.97;8.25;;;;;;;7.10;100.00;99358.91;4900910;29;20064;-77
2022/01/27 07:25:20;;;;;;;53.25;8.35;;;;;;;7.01;100.00;99334.22;4885496;29;20040;-78
2022/01/27 07:27:46;;;;;;;54.83;9.13;;;;;;;7.24;100.00;99376.53;4900659;29;20039;-78
2022/01/27 07:30:12;;;;;;;56.10;8.35;;;;;;;7.12;100.00;99341.63;4901279;29;20122;-77
2022/01/27 07:32:38;;;;;;;56.30;8.38;;;;;;;7.18;100.00;99343.41;4898811;29;20619;-78
2022/01/27 07:35:04;;;;;;;45.80;7.25;;;;;;;7.00;100.00;99305.84;4900915;29;20399;-78
2022/01/27 07:37:30;;;;;;;53.83;8.23;;;;;;;6.86;100.00;99274.88;4900292;29;20178;-77
2022/01/27 07:39:55;;;;;;;57.60;7.63;;;;;;;7.21;100.00;99331.47;4882474;29;20044;-77
2022/01/27 07:42:21;;;;;;;49.30;8.32;;;;;;;7.16;100.00;99308.03;4919327;29;20064;-78
2022/01/27 07:44:46;;;;;;;51.53;7.53;;;;;;;7.12;100.00;99306.00;4898456;29;20087;-78
2022/01/27 07:47:12;;;;;;;49.83;7.50;;;;;;;7.09;100.00;99287.72;4925626;29;20040;-78
2022/01/27 07:49:37;;;;;;;46.20;7.47;;;;;;;6.98;100.00;99265.94;4887475;29;20398;-78
2022/01/27 07:52:03;;;;;;;59.83;7.47;;;;;;;7.15;100.00;99289.53;4899538;29;20124;-78
2022/01/27 07:54:29;;;;;;;50.95;7.32;;;;;;;7.09;100.00;99279.69;4897520;29;20035;-78
2022/01/27 07:56:54;;;;;;;49.67;7.60;;;;;;;7.07;100.00;99278.03;4882137;29;20028;-79
2022/01/27 07:59:19;;;;;;;42.08;6.55;;;;;;;7.05;100.00;99269.44;4879843;29;20498;-78
2022/01/27 08:01:45;;;;;;;42.38;7.53;;;;;;;7.04;100.00;99275.78;4913312;29;20036;-78
2022/01/27 08:04:29;;;;;;;45.83;6.75;;;;;;;6.88;100.00;99238.03;4898816;29;20063;-77
2022/01/27 08:06:56;;;;;;;41.33;6.47;;;;;;;6.99;100.00;99251.56;4910137;29;20056;-78
2022/01/27 08:09:22;;;;;;;43.63;6.53;;;;;;;6.95;100.00;99239.63;4917170;29;20124;-78
2022/01/27 08:11:47;;;;;;;54.63;7.28;;;;;;;6.85;100.00;99212.53;4916673;29;20190;-78
2022/01/27 08:14:12;;;;;;;52.55;8.27;;;;;;;6.95;100.00;99228.94;4917017;29;20096;-79
2022/01/27 08:16:38;;;;;;;64.00;8.60;;;;;;;6.94;100.00;99215.78;4915475;29;20416;-77
2022/01/27 08:19:03;;;;;;;50.33;7.57;;;;;;;6.86;100.00;99198.16;4866050;29;20063;-78
2022/01/27 08:21:29;;;;;;;54.90;7.40;;;;;;;6.73;100.00;99182.19;4892254;29;20028;-78
2022/01/27 08:23:56;;;;;;;38.17;6.30;;;;;;;6.78;100.00;99187.69;4899948;29;20063;-78
2022/01/27 08:26:42;;;;;;;50.90;7.97;;;;;;;6.40;100.00;99127.03;4899913;29;20067;-78
2022/01/27 08:31:42;;;;;;;60.45;8.63;;;;;;;6.96;100.00;99189.66;4919807;29;20458;-78
2022/01/27 08:34:14;;;;;;;56.72;7.97;;;;;;;6.80;100.00;99158.91;4905237;29;20028;-78
2022/01/27 08:36:40;;;;;;;50.33;8.00;;;;;;;7.01;100.00;99190.63;4903232;29;20477;-78
2022/01/27 08:39:05;;;;;;;52.78;7.43;;;;;;;6.80;100.00;99146.34;4885360;29;20525;-78
2022/01/27 08:41:30;;;;;;;48.85;7.93;;;;;;;6.94;100.00;99155.09;4903723;29;20044;-77
2022/01/27 08:43:56;;;;;;;54.33;6.90;;;;;;;7.00;100.00;99150.75;4900350;29;20503;-78
2022/01/27 08:46:21;;;;;;;49.33;7.68;;;;;;;6.90;100.00;99113.78;4917536;29;20099;-79
2022/01/27 08:48:47;;;;;;;53.35;7.50;;;;;;;7.00;100.00;99121.34;4903046;29;20099;-77
2022/01/27 08:51:14;;;;;;;58.70;7.65;;;;;;;6.98;100.00;99124.22;4887618;29;20135;-78
2022/01/27 08:53:40;;;;;;;49.63;7.32;;;;;;;6.91;100.00;99118.09;4885750;29;20036;-78
2022/01/27 08:56:05;;;;;;;57.13;8.52;;;;;;;6.73;100.00;99081.41;4897842;29;20048;-79
2022/01/27 08:58:31;;;;;;;46.15;7.28;;;;;;;6.73;100.00;99077.94;4899765;29;20032;-79
2022/01/27 09:00:57;;;;;;;59.00;9.18;;;;;;;6.83;100.00;99091.63;4899165;29;20043;-79
2022/01/27 09:03:23;;;;;;;47.83;7.55;;;;;;;7.03;100.00;99104.84;4917723;29;20039;-78
2022/01/27 09:05:49;;;;;;;45.17;7.00;;;;;;;6.76;100.00;99045.44;4920410;29;20355;-78
2022/01/27 09:08:15;;;;;;;48.60;7.90;;;;;;;7.02;100.00;99085.31;4902310;29;20040;-79
2022/01/27 09:10:41;;;;;;;49.03;8.27;;;;;;;7.09;100.00;99087.94;4918229;29;20035;-78
2022/01/27 09:13:07;;;;;;;56.67;8.75;;;;;;;7.04;100.00;99074.41;4886420;29;20032;-78
2022/01/27 09:15:32;;;;;;;61.00;8.68;;;;;;;7.12;100.00;99079.50;4868242;29;20048;-78
2022/01/27 09:17:59;;;;;;;52.50;7.55;;;;;;;7.13;100.00;99061.56;4915968;29;20112;-76
2022/01/27 09:20:25;;;;;;;54.17;10.20;;;;;;;7.08;100.00;99067.56;4916402;29;20028;-78
2022/01/27 09:22:53;;;;;;;42.35;7.22;;;;;;;7.14;100.00;99065.88;4882245;29;20028;-78
2022/01/27 09:25:25;;;;;;;70.32;10.15;;;;;;;7.11;100.00;99043.06;4897342;29;20036;-79
2022/01/27 09:27:52;;;;;;;54.15;7.57;;;;;;;7.12;100.00;99030.50;4915650;29;20028;-78
2022/01/27 09:30:18;;;;;;;67.97;10.10;;;;;;;6.93;100.00;98993.03;4898948;29;20126;-78
2022/01/27 09:32:45;;;;;;;51.60;9.52;;;;;;;7.03;100.00;99000.56;4903292;29;20076;-77
2022/01/27 09:35:11;;;;;;;45.40;7.88;;;;;;;7.14;100.00;99012.38;4915072;29;20367;-78
2022/01/27 09:37:38;;;;;;;55.95;8.98;;;;;;;6.94;100.00;98992.00;4901499;29;20031;-78
2022/01/27 09:40:06;;;;;;;66.97;9.77;;;;;;;6.99;100.00;99016.22;4885605;29;20037;-77
2022/01/27 09:42:34;;;;;;;47.50;7.93;;;;;;;6.94;100.00;98997.34;4920016;29;20467;-78
2022/01/27 09:45:02;;;;;;;47.45;8.68;;;;;;;7.11;100.00;99004.78;4883983;29;20052;-78
2022/01/27 09:47:30;;;;;;;48.38;8.93;;;;;;;7.04;100.00;99000.31;4915841;29;20427;-78
2022/01/27 09:50:07;;;;;;;38.67;8.00;;;;;;;7.08;100.00;99006.06;4917708;29;20024;-77
2022/01/27 09:52:32;;;;;;;49.58;8.10;;;;;;;7.02;100.00;99001.59;4901113;29;20119;-78
2022/01/27 09:54:58;;;;;;;50.42;9.55;;;;;;;7.07;100.00;98964.31;4915488;29;20039;-79
2022/01/27 09:57:24;;;;;;;48.60;7.88;;;;;;;7.11;100.00;99008.28;4881869;29;20106;-78
2022/01/27 09:59:49;;;;;;;46.03;7.80;;;;;;;7.06;100.00;99011.63;4898909;29;20028;-79
2022/01/27 10:02:17;;;;;;;47.25;7.63;;;;;;;7.03;100.00;98993.34;4915628;29;20035;-78
2022/01/27 10:04:55;;;;;;;51.70;9.75;;;;;;;7.02;100.00;98994.41;4898444;29;20541;-78
2022/01/27 10:07:22;;;;;;;47.25;8.80;;;;;;;7.04;100.00;98992.31;4915121;29;20079;-78
2022/01/27 10:10:03;;;;;;;42.80;9.15;;;;;;;7.01;99.95;98994.59;4930444;29;20032;-78
2022/01/27 10:12:31;;;;;;;58.85;10.20;;;;;;;7.00;100.00;99001.81;4902600;29;20027;-78
2022/01/27 10:14:58;;;;;;;50.35;7.68;;;;;;;6.97;99.72;98994.22;4915704;29;20028;-79
2022/01/27 10:17:23;;;;;;;56.35;9.52;;;;;;;6.90;99.68;98993.47;4900365;29;20064;-77
2022/01/27 10:19:53;;;;;;;51.63;9.02;;;;;;;7.02;99.39;99018.47;4887637;29;20136;-79
2022/01/27 10:22:19;;;;;;;47.72;9.02;;;;;;;6.99;99.80;99005.53;4915694;29;20060;-78
2022/01/27 10:24:44;;;;;;;55.53;8.70;;;;;;;6.93;98.89;99006.41;4900801;29;20044;-78
2022/01/27 10:32:54;;;;;;;44.88;8.25;;;;;;;6.94;98.56;98994.66;4913197;29;20035;-79
2022/01/27 10:35:21;;;;;;;48.58;8.32;;;;;;;7.00;98.27;99004.50;4914977;29;20035;-78
2022/01/27 10:37:54;;;;;;;45.83;8.85;;;;;;;6.88;98.33;98992.06;4897774;29;20039;-79
2022/01/27 10:40:32;;;;;;;60.78;9.65;;;;;;;6.95;98.20;98993.63;4896716;29;20035;-78
2022/01/27 10:43:03;;;;;;;45.45;7.90;;;;;;;6.82;98.48;98967.00;4927966;29;20020;-78
2022/01/27 10:45:28;;;;;;;48.88;8.50;;;;;;;6.82;98.58;99002.59;4913516;29;20478;-78
2022/01/27 10:48:14;;;;;;;40.45;7.72;;;;;;;6.80;98.21;99006.53;4917410;29;20118;-78
2022/01/27 10:50:51;;;;;;;55.80;10.80;;;;;;;6.79;97.46;99020.94;4898086;29;20039;-78
2022/01/27 10:53:18;;;;;;;55.13;8.63;;;;;;;6.76;97.93;99000.81;4900520;29;20419;-78
2022/01/27 10:55:45;;;;;;;56.95;9.82;;;;;;;6.75;97.76;98988.44;4902000;29;20032;-78
2022/01/27 10:58:27;;;;;;;44.20;8.77;;;;;;;6.56;97.29;98974.22;4902099;29;20370;-77
2022/01/27 11:00:57;;;;;;;41.00;8.02;;;;;;;6.73;97.46;99003.09;4882439;29;20036;-78
2022/01/27 11:03:23;;;;;;;45.38;7.97;;;;;;;6.81;96.77;99002.81;4914708;29;20036;-79
2022/01/27 11:05:50;;;;;;;38.05;8.10;;;;;;;6.88;96.67;99008.91;4900093;29;20036;-78
2022/01/27 11:08:19;;;;;;;58.40;8.93;;;;;;;6.85;95.74;98993.31;4915408;29;20038;-78
2022/01/27 11:10:48;;;;;;;37.40;7.57;;;;;;;6.89;94.33;98949.06;4918029;29;20044;-79
2022/01/27 11:13:17;;;;;;;35.35;6.50;;;;;;;7.00;94.03;98995.66;4915038;29;20036;-80
2022/01/27 11:15:45;;;;;;;49.33;7.57;;;;;;;7.02;93.89;98980.22;4898782;29;20024;-80
2022/01/27 11:18:11;;;;;;;46.85;8.05;;;;;;;6.94;93.22;98999.19;4914835;29;20082;-80
2022/01/27 11:20:59;;;;;;;55.75;7.97;;;;;;;6.83;93.96;98974.00;4917488;29;20055;-78
2022/01/27 11:26:02;;;;;;;43.72;7.97;;;;;;;6.80;94.23;98987.81;4899269;29;20051;-78
2022/01/27 11:28:27;;;;;;;49.03;8.52;;;;;;;6.84;93.52;98970.28;4887279;29;20047;-79
2022/01/27 11:31:18;;;;;;;44.03;6.97;;;;;;;7.02;93.03;99009.63;4901276;29;20044;-78
2022/01/27 11:33:57;;;;;;;36.00;7.18;;;;;;;6.94;92.68;98986.66;4916390;29;20051;-78
2022/01/27 11:36:24;;;;;;;40.55;8.13;;;;;;;6.92;92.05;98982.53;4921129;29;20410;-78
2022/01/27 11:38:49;;;;;;;34.90;5.88;;;;;;;6.93;92.09;98963.63;4887372;29;20036;-79
2022/01/27 11:41:38;;;;;;;33.35;6.60;;;;;;;6.77;91.68;99006.97;4916061;29;20035;-78
2022/01/27 11:44:25;;;;;;;43.65;7.05;;;;;;;6.81;91.22;98989.44;4897291;29;20028;-78
2022/01/27 11:47:10;;;;;;;33.35;6.72;;;;;;;6.87;91.57;98999.25;4913849;29;20364;-76
2022/01/27 11:50:32;;;;;;;37.30;7.33;;;;;;;6.80;91.99;98974.44;4914254;29;20031;-77
2022/01/27 11:52:52;;;;;;;35.97;5.78;;;;;;;6.87;91.77;99012.63;4910074;29;20371;-77
2022/01/27 11:55:23;;;;;;;45.00;9.25;;;;;;;6.83;92.17;99008.75;4900820;29;20111;-78
2022/01/27 11:57:49;;;;;;;45.38;8.57;;;;;;;6.78;92.21;98980.00;4929417;29;20131;-77
2022/01/27 12:00:23;;;;;;;42.58;7.75;;;;;;;6.80;92.18;99018.03;4917881;29;20528;-77
2022/01/27 12:03:04;;;;;;;38.38;7.38;;;;;;;6.76;92.15;98991.97;4902102;29;20020;-77
2022/01/27 12:05:37;;;;;;;34.88;6.65;;;;;;;6.70;92.07;98998.19;4903090;29;20028;-77
2022/01/27 12:08:18;;;;;;;42.92;7.40;;;;;;;6.68;92.01;99029.63;4920357;29;20036;-78
2022/01/27 12:10:49;;;;;;;41.05;6.90;;;;;;;6.65;92.41;99014.84;4903309;29;20043;-77
2022/01/27 12:13:28;;;;;;;32.42;5.40;;;;;;;6.67;92.25;99006.63;4918281;29;20459;-77
2022/01/27 12:19:12;;;;;;;36.42;7.22;;;;;;;6.47;92.78;98982.75;4917396;29;20080;-77
2022/01/27 12:21:40;;;;;;;47.30;7.97;;;;;;;6.61;92.98;98999.47;4906579;29;20431;-77
2022/01/27 12:27:01;;;;;;;36.25;6.90;;;;;;;6.63;93.37;99006.25;4919347;29;20032;-77
2022/01/27 12:29:29;;;;;;;44.55;7.28;;;;;;;6.63;93.57;99018.81;4920065;29;20115;-77